createdAt,value
2023-02-01T00:01:11.293Z,21.23
2023-02-01T00:03:38.575Z,22.70
2023-02-01T00:06:07.621Z,21.20
2023-02-01T00:08:34.812Z,17.42
2023-02-01T00:11:10.119Z,21.42
2023-02-01T00:13:39.524Z,18.90
2023-02-01T00:16:21.048Z,18.88
2023-02-01T00:18:50.332Z,19.67
2023-02-01T00:21:19.550Z,20.13
2023-02-01T00:23:47.358Z,14.80
2023-02-01T00:26:36.118Z,20.73
2023-02-01T00:29:06.124Z,16.63
2023-02-01T00:31:33.755Z,17.10
2023-02-01T00:34:01.046Z,20.52
2023-02-01T00:36:28.966Z,20.88
2023-02-01T00:38:56.219Z,19.08
2023-02-01T00:41:24.063Z,18.15
2023-02-01T00:43:52.209Z,18.60
2023-02-01T00:46:21.191Z,18.27
2023-02-01T00:48:49.056Z,19.27
2023-02-01T00:51:19.125Z,22.60
2023-02-01T00:53:46.479Z,21.27
2023-02-01T00:56:14.412Z,19.20
2023-02-01T00:58:45.304Z,19.90
2023-02-01T01:01:20.522Z,21.67
2023-02-01T01:03:59.126Z,20.00
2023-02-01T01:06:36.297Z,19.92
2023-02-01T01:09:06.806Z,21.33
2023-02-01T01:11:37.090Z,18.98
2023-02-01T01:14:07.370Z,19.40
2023-02-01T01:16:35.209Z,20.17
2023-02-01T01:19:03.028Z,20.15
2023-02-01T01:21:33.335Z,16.20
2023-02-01T01:24:00.497Z,18.90
2023-02-01T01:26:29.707Z,20.40
2023-02-01T01:28:58.151Z,19.48
2023-02-01T01:31:26.984Z,20.08
2023-02-01T01:33:57.398Z,17.73
2023-02-01T01:36:25.160Z,22.05
2023-02-01T01:38:54.962Z,20.77
2023-02-01T01:41:25.719Z,18.58
2023-02-01T01:44:03.367Z,16.85
2023-02-01T01:46:36.754Z,19.90
2023-02-01T01:49:20.174Z,26.33
2023-02-01T01:52:00.382Z,17.63
2023-02-01T01:54:35.687Z,23.13
2023-02-01T01:57:07.830Z,23.80
2023-02-01T01:59:37.252Z,23.50
2023-02-01T02:02:09.661Z,24.45
2023-02-01T02:04:37.656Z,20.98
2023-02-01T02:07:11.604Z,26.15
2023-02-01T02:09:41.233Z,22.77
2023-02-01T02:12:10.892Z,26.58
2023-02-01T02:14:38.354Z,24.17
2023-02-01T02:17:24.165Z,24.75
2023-02-01T02:19:51.124Z,25.80
2023-02-01T02:22:58.593Z,26.77
2023-02-01T02:25:44.681Z,23.00
2023-02-01T02:28:20.989Z,22.85
2023-02-01T02:31:30.545Z,18.90
2023-02-01T02:33:57.833Z,22.25
2023-02-01T02:36:38.513Z,22.10
2023-02-01T02:39:06.887Z,22.65
2023-02-01T02:42:16.478Z,16.25
2023-02-01T02:45:03.032Z,24.65
2023-02-01T02:47:57.592Z,21.60
2023-02-01T02:50:49.598Z,20.40
2023-02-01T02:53:39.249Z,23.35
2023-02-01T02:56:27.317Z,23.27
2023-02-01T02:59:14.140Z,18.92
2023-02-01T03:02:00.814Z,22.85
2023-02-01T03:04:27.945Z,22.30
2023-02-01T03:06:55.566Z,24.02
2023-02-01T03:09:37.796Z,20.33
2023-02-01T03:12:33.711Z,23.37
2023-02-01T03:15:09.301Z,20.45
2023-02-01T03:17:41.217Z,23.38
2023-02-01T03:20:14.057Z,21.75
2023-02-01T03:25:17.228Z,19.85
2023-02-01T03:28:03.932Z,17.98
2023-02-01T03:30:52.281Z,22.75
2023-02-01T03:33:24.192Z,21.35
2023-02-01T03:36:15.309Z,22.48
2023-02-01T03:38:42.346Z,24.67
2023-02-01T03:41:14.422Z,25.80
2023-02-01T03:44:01.566Z,20.47
2023-02-01T03:46:43.902Z,19.38
2023-02-01T03:49:17.399Z,22.38
2023-02-01T03:51:46.842Z,22.42
2023-02-01T03:54:16.250Z,23.65
2023-02-01T03:56:46.469Z,22.77
2023-02-01T03:59:14.651Z,24.55
2023-02-01T04:01:42.187Z,22.00
2023-02-01T04:04:12.716Z,23.55
2023-02-01T04:06:39.870Z,21.15
2023-02-01T04:09:07.175Z,19.55
2023-02-01T04:11:34.330Z,21.92
2023-02-01T04:14:07.857Z,22.05
2023-02-01T04:16:35.693Z,20.98
2023-02-01T04:19:03.298Z,22.83
2023-02-01T04:21:30.824Z,25.60
2023-02-01T04:23:58.055Z,24.00
2023-02-01T04:26:25.177Z,23.48
2023-02-01T04:28:53.823Z,21.70
2023-02-01T04:31:26.800Z,29.25
2023-02-01T04:33:55.257Z,28.42
2023-02-01T04:36:23.329Z,27.27
2023-02-01T04:38:53.944Z,25.02
2023-02-01T04:41:21.732Z,26.45
2023-02-01T04:43:50.050Z,26.10
2023-02-01T04:46:17.807Z,26.27
2023-02-01T04:48:44.924Z,28.38
2023-02-01T04:51:13.761Z,23.75
2023-02-01T04:53:40.919Z,29.25
2023-02-01T04:56:09.012Z,27.17
2023-02-01T04:58:36.103Z,25.67
2023-02-01T05:01:08.536Z,26.02
2023-02-01T05:03:36.308Z,29.42
2023-02-01T05:06:05.394Z,32.65
2023-02-01T05:08:33.279Z,30.33
2023-02-01T05:11:00.434Z,29.08
2023-02-01T05:13:46.116Z,24.80
2023-02-01T05:16:13.181Z,27.15
2023-02-01T05:18:40.215Z,28.52
2023-02-01T05:21:07.400Z,29.15
2023-02-01T05:24:04.600Z,26.67
2023-02-01T05:26:32.928Z,26.40
2023-02-01T05:29:00.012Z,28.42
2023-02-01T05:31:27.234Z,26.35
2023-02-01T05:33:55.541Z,27.60
2023-02-01T05:36:22.845Z,29.80
2023-02-01T05:38:49.938Z,32.10
2023-02-01T05:41:17.072Z,32.40
2023-02-01T05:43:44.170Z,31.80
2023-02-01T05:46:16.219Z,33.65
2023-02-01T05:48:44.069Z,33.30
2023-02-01T05:51:12.198Z,30.92
2023-02-01T05:53:39.474Z,33.30
2023-02-01T05:56:07.163Z,29.30
2023-02-01T05:58:34.217Z,37.15
2023-02-01T06:01:02.042Z,34.10
2023-02-01T06:03:29.941Z,33.90
2023-02-01T06:05:57.097Z,35.53
2023-02-01T06:08:26.776Z,34.83
2023-02-01T06:11:05.486Z,35.60
2023-02-01T06:13:34.596Z,35.80
2023-02-01T06:16:04.269Z,32.45
2023-02-01T06:18:31.839Z,35.38
2023-02-01T06:21:03.212Z,37.90
2023-02-01T06:23:31.469Z,37.03
2023-02-01T06:26:08.741Z,36.35
2023-02-01T06:28:36.031Z,33.90
2023-02-01T06:31:07.984Z,34.78
2023-02-01T06:33:35.963Z,31.83
2023-02-01T06:36:05.340Z,38.60
2023-02-01T06:38:35.793Z,40.50
2023-02-01T06:41:04.012Z,38.22
2023-02-01T06:43:31.838Z,38.08
2023-02-01T06:46:07.621Z,39.13
2023-02-01T06:48:35.619Z,39.30
2023-02-01T06:51:02.880Z,36.65
2023-02-01T06:53:30.393Z,35.33
2023-02-01T06:56:03.270Z,32.83
2023-02-01T06:58:32.213Z,35.05
2023-02-01T07:01:05.175Z,39.83
2023-02-01T07:06:02.182Z,38.70
2023-02-01T07:08:30.521Z,39.58
2023-02-01T07:10:58.217Z,42.45
2023-02-01T07:13:25.345Z,33.30
2023-02-01T07:15:52.698Z,35.13
2023-02-01T07:18:19.772Z,37.28
2023-02-01T07:20:52.619Z,38.70
2023-02-01T07:23:20.265Z,37.03
2023-02-01T07:25:47.858Z,33.38
2023-02-01T07:28:16.476Z,36.20
2023-02-01T07:30:43.562Z,36.25
2023-02-01T07:33:10.829Z,35.17
2023-02-01T07:35:37.967Z,31.00
2023-02-01T07:38:05.025Z,32.40
2023-02-01T07:40:32.054Z,28.27
2023-02-01T07:42:59.802Z,32.80
2023-02-01T07:45:27.200Z,31.83
2023-02-01T07:47:54.797Z,33.28
2023-02-01T07:50:22.434Z,34.05
2023-02-01T07:52:49.869Z,31.67
2023-02-01T07:55:17.029Z,29.95
2023-02-01T07:57:44.032Z,30.90
2023-02-01T08:00:30.506Z,33.72
2023-02-01T08:03:00.731Z,29.95
2023-02-01T08:05:28.628Z,29.83
2023-02-01T08:07:55.853Z,29.75
2023-02-01T08:10:23.152Z,32.53
2023-02-01T08:12:52.579Z,30.00
2023-02-01T08:15:19.714Z,33.15
2023-02-01T08:17:51.131Z,30.60
2023-02-01T08:20:19.837Z,30.67
2023-02-01T08:22:47.051Z,29.40
2023-02-01T08:25:14.295Z,32.25
2023-02-01T08:27:41.352Z,30.40
2023-02-01T08:30:09.545Z,31.48
2023-02-01T08:32:36.747Z,31.58
2023-02-01T08:35:05.052Z,29.85
2023-02-01T08:37:32.472Z,31.45
2023-02-01T08:39:59.493Z,28.45
2023-02-01T08:42:45.113Z,29.45
2023-02-01T08:45:12.389Z,32.97
2023-02-01T08:47:39.418Z,27.98
2023-02-01T08:50:07.255Z,28.58
2023-02-01T08:52:35.793Z,26.65
2023-02-01T08:55:04.009Z,29.13
2023-02-01T08:57:32.162Z,28.20
2023-02-01T08:59:59.210Z,27.70
2023-02-01T09:02:26.456Z,30.70
2023-02-01T09:04:54.616Z,28.98
2023-02-01T09:07:21.953Z,29.20
2023-02-01T09:09:49.184Z,27.80
2023-02-01T09:12:16.282Z,30.52
2023-02-01T09:14:43.434Z,26.02
2023-02-01T09:17:10.505Z,31.10
2023-02-01T09:19:37.660Z,25.65
2023-02-01T09:22:04.715Z,27.13
2023-02-01T09:24:31.979Z,27.67
2023-02-01T09:26:59.581Z,25.95
2023-02-01T09:29:26.944Z,27.90
2023-02-01T09:32:03.268Z,27.52
2023-02-01T09:34:31.730Z,26.25
2023-02-01T09:36:58.791Z,26.60
2023-02-01T09:39:26.149Z,27.73
2023-02-01T09:41:58.720Z,26.48
2023-02-01T09:44:44.851Z,29.85
2023-02-01T09:47:20.301Z,28.20
2023-02-01T09:49:51.590Z,30.20
2023-02-01T09:52:21.127Z,31.55
2023-02-01T09:55:02.154Z,32.05
2023-02-01T09:57:59.468Z,31.58
2023-02-01T10:00:31.154Z,31.65
2023-02-01T10:02:58.629Z,28.45
2023-02-01T10:05:57.873Z,30.70
2023-02-01T10:08:33.851Z,27.92
2023-02-01T10:11:49.507Z,27.38
2023-02-01T10:14:45.885Z,28.38
2023-02-01T10:17:21.786Z,28.35
2023-02-01T10:20:08.925Z,26.88
2023-02-01T10:23:32.501Z,24.88
2023-02-01T10:28:39.539Z,28.23
2023-02-01T10:31:09.698Z,26.67
2023-02-01T10:33:45.681Z,27.40
2023-02-01T10:36:31.287Z,27.83
2023-02-01T10:39:00.578Z,28.38
2023-02-01T10:41:36.194Z,27.77
2023-02-01T10:44:20.500Z,29.70
2023-02-01T10:46:48.007Z,29.65
2023-02-01T10:49:30.889Z,27.95
2023-02-01T10:52:03.278Z,27.00
2023-02-01T10:54:36.732Z,25.05
2023-02-01T10:57:04.084Z,30.25
2023-02-01T10:59:34.517Z,25.30
2023-02-01T11:02:16.340Z,28.63
2023-02-01T11:04:44.304Z,26.15
2023-02-01T11:07:47.063Z,28.25
2023-02-01T11:10:41.796Z,28.48
2023-02-01T11:13:19.436Z,27.67
2023-02-01T11:15:47.952Z,27.98
2023-02-01T11:18:30.056Z,28.90
2023-02-01T11:20:58.042Z,26.88
2023-02-01T11:23:28.680Z,26.55
2023-02-01T11:26:01.392Z,28.42
2023-02-01T11:28:33.801Z,26.75
2023-02-01T11:31:04.683Z,25.55
2023-02-01T11:33:44.359Z,27.65
2023-02-01T11:36:18.748Z,27.17
2023-02-01T11:39:18.586Z,27.88
2023-02-01T11:42:16.245Z,29.27
2023-02-01T11:44:45.426Z,24.90
2023-02-01T11:47:30.676Z,25.15
2023-02-01T11:50:03.670Z,27.95
2023-02-01T11:52:42.935Z,25.83
2023-02-01T11:55:48.032Z,25.95
2023-02-01T11:58:33.505Z,22.40
2023-02-01T12:01:03.581Z,25.75
2023-02-01T12:03:50.906Z,24.40
2023-02-01T12:06:37.417Z,23.20
2023-02-01T12:09:33.511Z,22.15
2023-02-01T12:12:22.247Z,19.75
2023-02-01T12:14:55.334Z,19.58
2023-02-01T12:20:20.905Z,20.13
2023-02-01T12:23:11.955Z,19.08
2023-02-01T12:26:13.159Z,19.00
2023-02-01T12:28:55.087Z,18.17
2023-02-01T12:31:54.150Z,20.70
2023-02-01T12:34:24.012Z,17.42
2023-02-01T12:37:00.344Z,16.50
2023-02-01T12:39:39.586Z,17.92
2023-02-01T12:42:09.765Z,19.35
2023-02-01T12:44:46.436Z,18.20
2023-02-01T12:47:38.241Z,19.23
2023-02-01T12:50:26.777Z,19.10
2023-02-01T12:52:59.202Z,20.90
2023-02-01T12:55:37.759Z,17.88
2023-02-01T12:58:20.035Z,18.20
2023-02-01T13:01:16.932Z,18.95
2023-02-01T13:04:12.512Z,19.90
2023-02-01T13:06:53.963Z,16.35
2023-02-01T13:09:20.962Z,17.05
2023-02-01T13:11:52.068Z,16.85
2023-02-01T13:14:33.623Z,16.48
2023-02-01T13:17:05.696Z,15.43
2023-02-01T13:19:35.938Z,13.93
2023-02-01T13:22:26.549Z,14.40
2023-02-01T13:25:11.888Z,13.43
2023-02-01T13:27:40.710Z,14.43
2023-02-01T13:30:21.169Z,15.38
2023-02-01T13:33:53.643Z,16.35
2023-02-01T13:35:56.614Z,15.60
2023-02-01T13:38:45.211Z,15.50
2023-02-01T13:41:33.164Z,13.88
2023-02-01T13:44:07.424Z,13.00
2023-02-01T13:46:47.965Z,16.20
2023-02-01T13:49:24.041Z,15.75
2023-02-01T13:51:54.667Z,14.75
2023-02-01T13:54:40.257Z,15.35
2023-02-01T13:57:35.696Z,17.98
2023-02-01T14:00:21.893Z,18.98
2023-02-01T14:03:03.497Z,21.33
2023-02-01T14:05:30.568Z,22.00
2023-02-01T14:08:10.736Z,24.40
2023-02-01T14:10:58.412Z,21.55
2023-02-01T14:13:30.462Z,22.17
2023-02-01T14:16:10.364Z,20.73
2023-02-01T14:18:38.403Z,23.55
2023-02-01T14:21:22.015Z,21.75
2023-02-01T14:24:14.856Z,22.13
2023-02-01T14:26:46.328Z,21.77
2023-02-01T14:29:20.733Z,20.83
2023-02-01T14:31:55.245Z,20.25
2023-02-01T14:34:33.038Z,20.08
2023-02-01T14:37:06.773Z,20.42
2023-02-01T14:39:36.410Z,17.80
2023-02-01T14:42:15.904Z,18.95
2023-02-01T14:44:58.213Z,17.45
2023-02-01T14:47:26.933Z,16.13
2023-02-01T14:50:18.572Z,19.58
2023-02-01T14:52:50.709Z,21.83
2023-02-01T14:55:49.259Z,18.75
2023-02-01T14:58:26.544Z,18.95
2023-02-01T15:00:56.939Z,19.92
2023-02-01T15:03:36.724Z,22.70
2023-02-01T15:06:07.141Z,23.15
2023-02-01T15:08:39.016Z,22.40
2023-02-01T15:11:16.485Z,21.85
2023-02-01T15:13:55.564Z,26.35
2023-02-01T15:16:25.727Z,26.13
2023-02-01T15:19:10.542Z,25.65
2023-02-01T15:21:50.772Z,25.45
2023-02-01T15:24:29.720Z,26.02
2023-02-01T15:27:03.174Z,26.15
2023-02-01T15:29:34.420Z,29.08
2023-02-01T15:32:02.109Z,26.55
2023-02-01T15:34:50.488Z,23.80
2023-02-01T15:37:19.537Z,27.35
2023-02-01T15:40:11.706Z,29.70
2023-02-01T15:42:56.036Z,24.95
2023-02-01T15:47:55.651Z,26.63
2023-02-01T15:50:25.377Z,23.45
2023-02-01T15:52:56.806Z,25.55
2023-02-01T15:55:38.423Z,26.58
2023-02-01T15:58:26.122Z,26.27
2023-02-01T16:00:56.813Z,27.17
2023-02-01T16:03:38.518Z,23.73
2023-02-01T16:06:08.611Z,25.67
2023-02-01T16:08:38.015Z,26.63
2023-02-01T16:11:11.206Z,25.15
2023-02-01T16:13:38.255Z,22.98
2023-02-01T16:17:00.123Z,26.60
2023-02-01T16:19:29.387Z,28.30
2023-02-01T16:22:01.516Z,24.02
2023-02-01T16:24:28.987Z,25.53
2023-02-01T16:26:56.099Z,25.70
2023-02-01T16:29:23.375Z,26.90
2023-02-01T16:31:51.414Z,28.65
2023-02-01T16:34:19.256Z,28.65
2023-02-01T16:36:54.689Z,31.83
2023-02-01T16:39:22.314Z,30.33
2023-02-01T16:41:49.505Z,31.20
2023-02-01T16:44:16.641Z,30.50
2023-02-01T16:46:48.177Z,27.38
2023-02-01T16:49:24.609Z,29.75
2023-02-01T16:51:56.291Z,28.55
2023-02-01T16:54:23.358Z,30.77
2023-02-01T16:56:50.784Z,31.33
2023-02-01T16:59:17.937Z,31.25
2023-02-01T17:01:44.930Z,29.13
2023-02-01T17:04:12.189Z,29.67
2023-02-01T17:06:40.202Z,26.75
2023-02-01T17:09:07.467Z,27.48
2023-02-01T17:11:34.650Z,28.80
2023-02-01T17:14:32.195Z,27.08
2023-02-01T17:16:59.337Z,24.27
2023-02-01T17:19:26.499Z,26.33
2023-02-01T17:21:56.894Z,28.77
2023-02-01T17:24:30.696Z,19.55
2023-02-01T17:27:04.673Z,20.00
2023-02-01T17:29:31.981Z,17.15
2023-02-01T17:32:00.689Z,17.95
2023-02-01T17:34:28.663Z,15.27
2023-02-01T17:36:55.932Z,13.98
2023-02-01T17:39:41.560Z,13.70
2023-02-01T17:42:12.707Z,14.32
2023-02-01T17:44:40.186Z,14.95
2023-02-01T17:47:07.259Z,14.07
2023-02-01T17:49:35.937Z,14.40
2023-02-01T17:52:03.147Z,13.40
2023-02-01T17:54:30.459Z,13.50
2023-02-01T17:57:01.681Z,13.38
2023-02-01T17:59:29.071Z,14.23
2023-02-01T18:02:01.066Z,15.70
2023-02-01T18:04:28.295Z,14.73
2023-02-01T18:06:55.383Z,15.25
2023-02-01T18:09:22.758Z,15.40
2023-02-01T18:11:50.565Z,14.32
2023-02-01T18:14:17.681Z,13.38
2023-02-01T18:16:45.186Z,13.02
2023-02-01T18:19:12.286Z,14.68
2023-02-01T18:21:42.781Z,15.80
2023-02-01T18:24:14.028Z,13.52
2023-02-01T18:26:42.213Z,14.65
2023-02-01T18:29:09.543Z,15.60
2023-02-01T18:31:44.485Z,15.95
2023-02-01T18:34:17.224Z,15.07
2023-02-01T18:36:44.268Z,18.77
2023-02-01T18:39:12.080Z,17.30
2023-02-01T18:41:40.575Z,16.90
2023-02-01T18:44:16.637Z,17.13
2023-02-01T18:46:44.257Z,19.20
2023-02-01T18:49:14.084Z,18.00
2023-02-01T18:51:43.714Z,19.27
2023-02-01T18:54:14.227Z,19.70
2023-02-01T18:56:43.031Z,19.42
2023-02-01T18:59:12.114Z,16.02
2023-02-01T19:01:39.382Z,18.05
2023-02-01T19:04:13.061Z,18.02
2023-02-01T19:06:44.695Z,18.30
2023-02-01T19:09:11.709Z,19.58
2023-02-01T19:11:38.997Z,20.50
2023-02-01T19:14:07.178Z,18.33
2023-02-01T19:16:36.205Z,17.67
2023-02-01T19:19:03.281Z,18.00
2023-02-01T19:21:30.512Z,16.83
2023-02-01T19:23:57.583Z,17.10
2023-02-01T19:26:24.688Z,18.50
2023-02-01T19:28:51.739Z,19.05
2023-02-01T19:31:18.954Z,17.27
2023-02-01T19:33:46.346Z,19.05
2023-02-01T19:36:13.535Z,17.90
2023-02-01T19:38:40.726Z,18.77
2023-02-01T19:41:07.969Z,19.73
2023-02-01T19:43:36.893Z,20.05
2023-02-01T19:46:04.554Z,18.95
2023-02-01T19:48:31.860Z,19.77
2023-02-01T19:50:59.310Z,21.33
2023-02-01T19:53:28.029Z,21.70
2023-02-01T19:55:56.956Z,22.70
2023-02-01T19:58:25.832Z,22.63
2023-02-01T20:00:54.411Z,23.90
2023-02-01T20:03:22.517Z,28.05
2023-02-01T20:05:54.434Z,25.42
2023-02-01T20:08:21.858Z,27.80
2023-02-01T20:10:49.098Z,24.35
2023-02-01T20:13:16.863Z,25.15
2023-02-01T20:15:44.252Z,26.67
2023-02-01T20:18:11.501Z,28.45
2023-02-01T20:20:40.175Z,29.67
2023-02-01T20:23:07.383Z,27.70
2023-02-01T20:25:37.304Z,28.60
2023-02-01T20:28:04.599Z,27.88
2023-02-01T20:30:32.458Z,28.50
2023-02-01T20:32:59.738Z,26.38
2023-02-01T20:35:27.037Z,24.58
2023-02-01T20:37:57.175Z,28.63
2023-02-01T20:40:24.288Z,26.13
2023-02-01T20:42:51.444Z,28.27
2023-02-01T20:45:18.842Z,27.23
2023-02-01T20:47:50.863Z,28.52
2023-02-01T20:50:19.234Z,29.87
2023-02-01T20:52:46.514Z,28.42
2023-02-01T20:55:13.597Z,27.17
2023-02-01T20:57:40.623Z,29.98
2023-02-01T21:00:10.344Z,29.73
2023-02-01T21:02:37.554Z,28.90
2023-02-01T21:05:05.576Z,29.17
2023-02-01T21:07:36.055Z,28.60
2023-02-01T21:10:03.664Z,31.15
2023-02-01T21:12:31.416Z,28.80
2023-02-01T21:14:58.441Z,27.52
2023-02-01T21:17:28.482Z,28.02
2023-02-01T21:19:56.237Z,27.60
2023-02-01T21:22:23.357Z,29.70
2023-02-01T21:24:51.783Z,28.05
2023-02-01T21:27:18.939Z,29.23
2023-02-01T21:29:46.467Z,29.25
2023-02-01T21:32:13.717Z,32.08
2023-02-01T21:34:40.811Z,30.70
2023-02-01T21:37:08.466Z,33.35
2023-02-01T21:39:35.591Z,47.75
2023-02-01T21:42:14.977Z,30.70
2023-02-01T21:44:42.325Z,29.20
2023-02-01T21:47:11.028Z,32.42
2023-02-01T21:49:38.245Z,36.97
2023-02-01T21:52:05.996Z,36.92
2023-02-01T21:54:33.088Z,29.73
2023-02-01T21:57:00.374Z,44.45
2023-02-01T21:59:27.587Z,32.50
2023-02-01T22:01:54.571Z,31.00
2023-02-01T22:04:21.831Z,29.70
2023-02-01T22:06:48.893Z,30.23
2023-02-01T22:09:21.752Z,29.15
2023-02-01T22:11:50.194Z,30.90
2023-02-01T22:14:17.336Z,31.40
2023-02-01T22:16:44.888Z,27.05
2023-02-01T22:19:15.147Z,27.13
2023-02-01T22:21:45.230Z,30.65
2023-02-01T22:24:15.772Z,30.52
2023-02-01T22:26:44.254Z,29.40
2023-02-01T22:29:13.259Z,30.40
2023-02-01T22:31:43.284Z,29.23
2023-02-01T22:34:11.560Z,28.70
2023-02-01T22:36:38.851Z,27.80
2023-02-01T22:39:05.997Z,28.85
2023-02-01T22:41:33.196Z,28.67
2023-02-01T22:44:03.451Z,27.50
2023-02-01T22:46:33.420Z,26.02
2023-02-01T22:49:00.628Z,29.55
2023-02-01T22:51:29.699Z,29.77
2023-02-01T22:53:57.537Z,28.17
2023-02-01T22:56:31.031Z,27.30
2023-02-01T22:59:00.725Z,26.33
2023-02-01T23:01:28.969Z,27.70
2023-02-01T23:03:57.883Z,28.48
2023-02-01T23:06:25.978Z,29.63
2023-02-01T23:09:06.410Z,27.98
2023-02-01T23:11:33.491Z,26.42
2023-02-01T23:14:00.618Z,28.17
2023-02-01T23:16:27.784Z,28.27
2023-02-01T23:18:55.062Z,27.20
2023-02-01T23:21:23.483Z,26.45
2023-02-01T23:24:01.656Z,28.45
2023-02-01T23:26:31.336Z,27.13
2023-02-01T23:28:59.226Z,24.45
2023-02-01T23:31:30.690Z,27.45
2023-02-01T23:33:59.901Z,28.02
2023-02-01T23:36:28.513Z,27.75
2023-02-01T23:38:55.915Z,29.25
2023-02-01T23:41:24.048Z,27.50
2023-02-01T23:44:00.348Z,27.77
2023-02-01T23:46:29.044Z,29.23
2023-02-01T23:48:56.754Z,24.40
2023-02-01T23:51:24.931Z,27.55
2023-02-01T23:53:52.729Z,26.02
2023-02-01T23:56:27.691Z,27.35
2023-02-01T23:58:56.818Z,26.42
